createdAt,value
2024-05-09T00:07:13.903Z,37.3300
2024-05-09T00:17:26.011Z,37.3281
2024-05-09T00:27:38.224Z,37.3200
2024-05-09T00:37:50.443Z,37.3200
2024-05-09T00:48:02.817Z,37.3213
2024-05-09T00:58:15.194Z,37.3290
2024-05-09T01:08:27.210Z,37.3315
2024-05-09T01:18:39.181Z,37.3300
2024-05-09T01:28:51.273Z,37.3300
2024-05-09T01:39:03.292Z,37.3098
2024-05-09T01:49:15.474Z,37.2900
2024-05-09T01:59:27.828Z,37.2900
2024-05-09T02:09:39.904Z,37.2900
2024-05-09T02:19:52.082Z,37.2900
2024-05-09T02:30:07.733Z,37.2900
2024-05-09T02:40:29.149Z,37.2900
2024-05-09T02:50:40.430Z,37.2648
2024-05-09T03:00:52.882Z,37.2625
2024-05-09T03:11:05.257Z,37.2669
2024-05-09T03:21:17.256Z,37.2700
2024-05-09T03:31:29.352Z,37.2640
2024-05-09T03:41:41.693Z,37.2554
2024-05-09T03:51:53.630Z,37.2600
2024-05-09T04:02:05.994Z,37.2600
2024-05-09T04:12:18.162Z,37.2600
2024-05-09T04:22:30.039Z,37.2600
2024-05-09T04:32:42.269Z,37.2583
2024-05-09T04:42:54.602Z,37.2508
2024-05-09T04:53:07.382Z,37.2619
2024-05-09T05:03:20.377Z,37.2871
2024-05-09T05:13:32.189Z,37.2977
2024-05-09T05:23:44.371Z,37.3071
2024-05-09T05:33:56.226Z,37.3006
2024-05-09T05:44:08.236Z,37.2900
2024-05-09T05:54:20.106Z,37.2900
2024-05-09T06:04:32.060Z,37.2900
2024-05-09T06:14:43.971Z,37.2900
2024-05-09T06:24:55.893Z,37.2906
2024-05-09T06:35:07.816Z,37.2919
2024-05-09T06:45:19.832Z,37.2894
2024-05-09T06:55:31.578Z,37.2871
2024-05-09T07:05:43.610Z,37.2808
2024-05-09T07:15:55.545Z,37.2800
2024-05-09T07:26:07.612Z,37.2833
2024-05-09T07:36:19.378Z,37.2800
2024-05-09T07:47:37.098Z,37.2800
2024-05-09T07:56:49.617Z,37.2800
2024-05-09T08:07:02.036Z,37.2708
2024-05-09T08:17:13.962Z,37.2600
2024-05-09T08:27:25.905Z,37.2571
2024-05-09T08:37:39.984Z,37.2400
2024-05-09T08:47:52.730Z,37.2400
2024-05-09T08:58:04.636Z,37.2400
2024-05-09T09:08:17.303Z,37.2398
2024-05-09T09:18:29.770Z,37.2467
2024-05-09T09:28:42.234Z,37.2400
2024-05-09T09:38:54.229Z,37.2400
2024-05-09T09:49:06.370Z,37.2344
2024-05-09T09:59:18.476Z,37.2313
2024-05-09T10:09:30.640Z,37.2444
2024-05-09T10:19:42.790Z,37.2340
2024-05-09T10:29:54.936Z,37.2031
2024-05-09T10:40:13.979Z,37.1919
2024-05-09T10:50:28.771Z,37.1900
2024-05-09T11:00:43.246Z,37.1619
2024-05-09T11:10:55.539Z,37.1069
2024-05-09T11:21:07.808Z,37.1081
2024-05-09T11:31:20.310Z,37.1019
2024-05-09T11:41:33.402Z,37.0898
2024-05-09T11:51:46.361Z,37.0802
2024-05-09T12:01:59.132Z,37.0767
2024-05-09T12:12:11.848Z,37.0700
2024-05-09T12:22:24.768Z,37.0631
2024-05-09T12:32:37.510Z,37.0573
2024-05-09T12:42:50.324Z,37.0500
2024-05-09T12:53:04.287Z,37.0342
2024-05-09T13:03:17.800Z,37.0206
2024-05-09T13:13:30.518Z,37.0152
2024-05-09T13:23:43.171Z,37.0096
2024-05-09T13:33:55.861Z,36.9879
2024-05-09T13:44:08.715Z,36.9725
2024-05-09T13:54:22.678Z,36.9587
2024-05-09T14:04:35.446Z,36.9510
2024-05-09T14:14:48.441Z,36.9333
2024-05-09T14:25:01.205Z,36.9263
2024-05-09T14:35:13.831Z,36.9125
2024-05-09T14:45:26.407Z,36.8929
2024-05-09T14:55:40.582Z,36.8587
2024-05-09T15:05:55.038Z,36.8371
2024-05-09T15:16:07.970Z,36.8171
2024-05-09T15:26:21.756Z,36.8129
2024-05-09T15:36:34.590Z,36.8000
2024-05-09T15:46:47.744Z,36.7913
2024-05-09T15:57:00.799Z,36.7706
2024-05-09T16:07:13.647Z,36.7381
2024-05-09T16:17:26.667Z,36.6654
2024-05-09T16:27:39.867Z,36.6433
2024-05-09T16:37:52.972Z,36.6338
2024-05-09T16:48:06.061Z,36.6112
2024-05-09T16:58:19.513Z,36.6150
2024-05-09T17:08:32.521Z,36.6000
2024-05-09T17:18:45.774Z,36.5898
2024-05-09T17:28:58.732Z,36.5796
2024-05-09T17:39:11.910Z,36.5625
2024-05-09T17:49:25.003Z,36.5477
2024-05-09T17:59:37.969Z,36.5400
2024-05-09T18:09:51.055Z,36.5310
2024-05-09T18:20:05.134Z,36.5300
2024-05-09T18:30:24.219Z,36.5206
2024-05-09T18:40:38.369Z,36.4994
2024-05-09T18:50:52.905Z,36.4969
2024-05-09T19:01:06.440Z,36.4998
2024-05-09T19:11:19.470Z,36.4908
2024-05-09T19:21:32.841Z,36.4896
2024-05-09T19:31:45.676Z,36.4804
2024-05-09T19:41:59.083Z,36.4800
2024-05-09T19:52:12.016Z,36.4719
2024-05-09T20:02:25.308Z,36.4671
2024-05-09T20:12:38.685Z,36.4604
2024-05-09T20:22:51.659Z,36.4600
2024-05-09T20:33:06.437Z,36.4600
2024-05-09T20:43:20.535Z,36.4417
2024-05-09T20:53:33.782Z,36.4400
2024-05-09T21:03:47.074Z,36.4319
2024-05-09T21:14:00.090Z,36.4300
2024-05-09T21:24:13.345Z,36.4300
2024-05-09T21:34:26.613Z,36.4283
2024-05-09T21:44:39.736Z,36.4019
2024-05-09T21:54:52.570Z,36.3983
2024-05-09T22:05:05.714Z,36.3800
2024-05-09T22:15:18.980Z,36.3733
2024-05-09T22:25:32.890Z,36.3687
2024-05-09T22:35:46.274Z,36.3600
2024-05-09T22:45:59.460Z,36.3585
2024-05-09T22:56:12.276Z,36.3500
2024-05-09T23:06:25.625Z,36.3500
2024-05-09T23:16:38.685Z,36.3408
2024-05-09T23:26:51.587Z,36.3254
2024-05-09T23:37:04.714Z,36.3100
2024-05-09T23:47:17.643Z,36.3185
2024-05-09T23:57:30.920Z,36.3740
